Main page
METAR-TAF:

METAR-TAF

Airports :

West Woodward Airport

Woodward, Oklahoma, United States

latitude: 36-26-12N, longitude: 099-31-16W, elevation: 2188 ft

Current weather observation

The report was made 53 minutes ago, at 08:50 UTC
Wind 8 mph from the Southwest
Temperature 66°F
Humidity 78%
Pressure 29.98 in. Hg
Visibility: 10 miles
Clear sky

METAR: KWWR 140850Z AUTO 23007KT 10SM CLR 19/15 A2998 RMK AO2

Time: 04:43 (09:43 UTC)

Forecast

The report was made 4 hours and 23 minutes ago, at 05:20 UTC
Forecast valid from 14 at 06 UTC to 15 at 06 UTC
Wind 12 mph from the South/Southeast with gusts up to 21 mph
Visibility: 6 miles
Scattered clouds at a height of 8000 ft
Broken clouds at a height of 25000 ft
From 14 at 1900 UTC
Wind 14 mph from the Southeast with gusts up to 22 mph
Visibility: 6 miles
Scattered clouds at a height of 25000 ft

TAF: KWWR 140520Z 1406/1506 16010G18KT P6SM SCT080 BKN250 FM141900 14012G19KT P6SM SCT250

Weather observations and forecasts of more than 4000 airports (METAR and TAF reports).

The available stations are represented by yellow and red dots on the map.

Hover mouse over dot to see the name of the station.

Then click to see weather observations and forecasts.

To change the map : click on the green buttons with a black cross to zoom in, on the green button with a dash to zoom out, or on the green arrows for adjacent maps.


METAR-TAF: